Time;durP1;ratioP1;P1;durP2;ratioP2;P2;SDS_P1;SDS_P2;PMS_P1;PMS_P2;Temp;Humidity;BMP_temperature;BMP_pressure;BME280_temperature;BME280_humidity;BME280_pressure;Samples;Min_cycle;Max_cycle;Signal;HPM_P1;HPM_P2
2021/08/27 00:00:58;;;;;;;6.35;3.25;;;;;;;;;;5004169;28;20089;-82
2021/08/27 00:03:25;;;;;;;5.43;3.40;;;;;;;;;;5004158;28;20073;-81
2021/08/27 00:05:51;;;;;;;5.95;3.28;;;;;;;;;;5003550;28;20089;-81
2021/08/27 00:08:18;;;;;;;8.57;4.00;;;;;;;;;;5004467;28;20516;-81
2021/08/27 00:10:46;;;;;;;6.50;3.90;;;;;;;;;;5004914;28;20070;-81
2021/08/27 00:13:13;;;;;;;7.47;3.63;;;;;;;;;;5004125;28;20074;-80
2021/08/27 00:15:40;;;;;;;6.60;3.92;;;;;;;;;;5003128;28;20054;-81
2021/08/27 00:18:07;;;;;;;8.30;4.25;;;;;;;;;;5003428;28;20077;-81
2021/08/27 00:20:33;;;;;;;6.97;4.13;;;;;;;;;;5003399;28;20073;-82
2021/08/27 00:23:00;;;;;;;6.80;3.80;;;;;;;;;;5004100;28;20089;-82
2021/08/27 00:25:27;;;;;;;6.00;4.13;;;;;;;;;;5003364;28;20082;-82
2021/08/27 00:27:55;;;;;;;7.00;4.13;;;;;;;;;;5003919;28;20084;-82
2021/08/27 00:30:21;;;;;;;6.03;3.50;;;;;;;;;;5003345;28;20076;-82
2021/08/27 00:32:48;;;;;;;8.05;4.13;;;;;;;;;;5003311;28;20074;-81
2021/08/27 00:35:15;;;;;;;6.70;3.75;;;;;;;;;;5003205;28;20393;-82
2021/08/27 00:37:42;;;;;;;6.97;4.38;;;;;;;;;;5003506;28;20173;-82
2021/08/27 00:40:09;;;;;;;6.30;3.60;;;;;;;;;;5003578;28;20085;-82
2021/08/27 00:42:36;;;;;;;7.00;3.70;;;;;;;;;;5003932;28;20049;-82
2021/08/27 00:45:05;;;;;;;7.07;4.40;;;;;;;;;;5000481;28;20137;-84
2021/08/27 00:47:32;;;;;;;6.88;4.00;;;;;;;;;;4998102;28;20054;-84
2021/08/27 00:49:58;;;;;;;8.90;4.75;;;;;;;;;;4998472;28;20101;-84
2021/08/27 00:52:25;;;;;;;6.43;3.83;;;;;;;;;;5001903;28;20058;-84
2021/08/27 00:54:53;;;;;;;6.90;4.57;;;;;;;;;;5002872;28;20138;-82
2021/08/27 00:57:21;;;;;;;6.80;3.92;;;;;;;;;;5003638;28;20125;-82
2021/08/27 00:59:48;;;;;;;6.90;3.85;;;;;;;;;;5001787;28;20085;-83
2021/08/27 01:02:17;;;;;;;6.97;4.38;;;;;;;;;;5004165;28;20068;-79
2021/08/27 01:04:46;;;;;;;6.03;4.00;;;;;;;;;;5004969;28;20682;-83
2021/08/27 01:07:18;;;;;;;7.45;4.53;;;;;;;;;;5000989;28;20102;-83
2021/08/27 01:09:53;;;;;;;7.45;4.18;;;;;;;;;;5001665;28;20460;-83
2021/08/27 01:12:27;;;;;;;8.43;4.43;;;;;;;;;;4997711;28;20133;-81
2021/08/27 01:14:57;;;;;;;7.75;4.75;;;;;;;;;;4999149;28;20133;-81
2021/08/27 01:17:29;;;;;;;7.60;4.13;;;;;;;;;;4996938;28;20460;-82
2021/08/27 01:20:31;;;;;;;7.93;4.70;;;;;;;;;;4997131;28;20133;-83
2021/08/27 01:23:16;;;;;;;7.00;4.25;;;;;;;;;;4997132;28;20130;-82
2021/08/27 01:25:47;;;;;;;7.10;4.20;;;;;;;;;;4997019;28;20137;-81
2021/08/27 01:28:15;;;;;;;5.80;3.38;;;;;;;;;;4997649;28;20150;-81
2021/08/27 01:30:45;;;;;;;7.78;4.68;;;;;;;;;;4997245;28;20130;-82
2021/08/27 01:33:16;;;;;;;7.45;4.25;;;;;;;;;;4997477;28;20085;-81
2021/08/27 01:35:48;;;;;;;6.68;4.25;;;;;;;;;;4996937;28;20078;-82
2021/08/27 01:38:16;;;;;;;7.47;4.78;;;;;;;;;;4997352;28;20129;-82
2021/08/27 01:40:48;;;;;;;8.55;5.25;;;;;;;;;;4997032;28;20465;-81
2021/08/27 01:43:16;;;;;;;7.03;4.82;;;;;;;;;;4997201;28;20129;-81
2021/08/27 01:45:47;;;;;;;6.28;4.10;;;;;;;;;;4998397;28;20148;-81
2021/08/27 01:48:15;;;;;;;8.13;4.38;;;;;;;;;;4999106;28;20104;-84
2021/08/27 01:50:45;;;;;;;8.05;4.70;;;;;;;;;;4998926;28;20077;-83
2021/08/27 01:53:13;;;;;;;7.10;4.85;;;;;;;;;;4998875;28;20133;-81
2021/08/27 01:55:40;;;;;;;6.57;4.13;;;;;;;;;;4998092;28;20479;-83
2021/08/27 01:58:08;;;;;;;7.97;5.28;;;;;;;;;;4998261;28;20074;-83
2021/08/27 02:00:35;;;;;;;8.85;4.75;;;;;;;;;;4998472;28;20082;-83
2021/08/27 02:03:05;;;;;;;8.38;4.53;;;;;;;;;;4997613;28;20530;-82
2021/08/27 02:05:32;;;;;;;9.38;5.07;;;;;;;;;;4998554;28;20061;-83
2021/08/27 02:08:02;;;;;;;7.75;5.10;;;;;;;;;;4998263;28;20089;-83
2021/08/27 02:10:30;;;;;;;8.68;5.85;;;;;;;;;;4997589;28;20584;-83
2021/08/27 02:12:57;;;;;;;8.35;5.05;;;;;;;;;;4997042;28;20134;-83
2021/08/27 02:15:25;;;;;;;7.97;5.55;;;;;;;;;;4997084;28;20077;-83
2021/08/27 02:17:52;;;;;;;9.63;6.10;;;;;;;;;;4996995;28;20085;-83
2021/08/27 02:20:18;;;;;;;10.07;5.85;;;;;;;;;;4996704;28;20125;-82
2021/08/27 02:22:49;;;;;;;8.85;5.65;;;;;;;;;;4996621;28;20101;-83
2021/08/27 02:25:21;;;;;;;8.93;5.93;;;;;;;;;;4996470;28;20137;-83
2021/08/27 02:27:48;;;;;;;9.85;6.57;;;;;;;;;;4996520;28;20137;-83
2021/08/27 02:30:16;;;;;;;7.68;5.72;;;;;;;;;;4997368;28;20142;-81
2021/08/27 02:32:44;;;;;;;9.02;6.07;;;;;;;;;;4997076;28;20074;-84
2021/08/27 02:35:12;;;;;;;9.23;6.72;;;;;;;;;;4999107;28;20074;-82
2021/08/27 02:37:40;;;;;;;8.70;5.85;;;;;;;;;;4999032;28;20621;-81
2021/08/27 02:40:08;;;;;;;8.73;6.22;;;;;;;;;;4999215;28;20106;-83
2021/08/27 02:42:36;;;;;;;9.00;5.88;;;;;;;;;;5000081;28;20108;-83
2021/08/27 02:45:05;;;;;;;8.55;5.55;;;;;;;;;;5000017;28;20077;-83
2021/08/27 02:47:32;;;;;;;8.90;5.93;;;;;;;;;;5000043;28;20476;-84
2021/08/27 02:49:59;;;;;;;8.43;5.60;;;;;;;;;;4999806;28;20050;-84
2021/08/27 02:52:32;;;;;;;9.60;6.28;;;;;;;;;;4999932;28;20512;-82
2021/08/27 02:55:04;;;;;;;9.50;6.22;;;;;;;;;;4999846;28;20049;-83
2021/08/27 02:57:36;;;;;;;10.13;6.22;;;;;;;;;;4999092;28;20097;-83
2021/08/27 03:00:05;;;;;;;7.93;5.82;;;;;;;;;;5000441;28;20142;-80
2021/08/27 03:02:32;;;;;;;8.45;5.68;;;;;;;;;;5004085;28;20088;-80
2021/08/27 03:05:05;;;;;;;10.63;6.10;;;;;;;;;;5004171;28;20069;-80
2021/08/27 03:07:32;;;;;;;10.07;6.10;;;;;;;;;;5004273;28;20511;-82
2021/08/27 03:10:02;;;;;;;9.52;6.30;;;;;;;;;;5004241;28;20051;-81
2021/08/27 03:12:43;;;;;;;9.27;6.00;;;;;;;;;;5004465;28;20201;-81
2021/08/27 03:15:17;;;;;;;9.02;5.85;;;;;;;;;;4998007;28;20082;-83
2021/08/27 03:17:44;;;;;;;7.80;5.82;;;;;;;;;;5001549;28;20089;-81
2021/08/27 03:20:18;;;;;;;10.10;6.28;;;;;;;;;;4999302;28;20081;-83
2021/08/27 03:22:48;;;;;;;9.40;6.47;;;;;;;;;;4999228;28;20402;-82
2021/08/27 03:25:16;;;;;;;8.63;5.87;;;;;;;;;;4999240;28;20559;-82
2021/08/27 03:27:45;;;;;;;7.38;5.03;;;;;;;;;;4998459;28;20070;-83
2021/08/27 03:30:18;;;;;;;9.10;5.90;;;;;;;;;;4999990;28;20114;-82
2021/08/27 03:32:47;;;;;;;9.27;5.43;;;;;;;;;;4999694;28;20063;-83
2021/08/27 03:35:15;;;;;;;8.63;6.07;;;;;;;;;;4998422;28;20070;-83
2021/08/27 03:37:43;;;;;;;9.45;6.40;;;;;;;;;;4998183;28;20073;-81
2021/08/27 03:40:12;;;;;;;10.98;6.28;;;;;;;;;;4998092;28;20047;-83
2021/08/27 03:42:40;;;;;;;8.20;5.78;;;;;;;;;;4998349;28;20137;-83
2021/08/27 03:45:09;;;;;;;9.52;6.45;;;;;;;;;;5000672;28;20089;-84
2021/08/27 03:47:38;;;;;;;7.93;5.82;;;;;;;;;;4999083;28;20511;-84
2021/08/27 03:50:06;;;;;;;8.77;5.55;;;;;;;;;;5006860;28;20057;-83
2021/08/27 03:52:33;;;;;;;8.63;6.50;;;;;;;;;;4999598;28;20081;-84
2021/08/27 03:55:02;;;;;;;9.65;5.75;;;;;;;;;;4997891;28;20089;-83
2021/08/27 03:57:31;;;;;;;8.70;5.80;;;;;;;;;;4997870;28;20050;-83
2021/08/27 03:59:58;;;;;;;10.50;6.43;;;;;;;;;;4998265;28;20050;-82
2021/08/27 04:02:27;;;;;;;8.27;5.68;;;;;;;;;;4998648;28;20078;-84
2021/08/27 04:05:12;;;;;;;8.32;5.50;;;;;;;;;;4998950;28;20109;-83
2021/08/27 04:07:39;;;;;;;7.97;5.90;;;;;;;;;;4999025;28;20066;-83
2021/08/27 04:10:07;;;;;;;7.22;4.93;;;;;;;;;;5000525;28;20077;-84
2021/08/27 04:12:35;;;;;;;8.00;4.65;;;;;;;;;;5000064;28;20050;-85
2021/08/27 04:15:02;;;;;;;6.70;4.25;;;;;;;;;;4997986;28;20050;-83
2021/08/27 04:17:28;;;;;;;5.65;3.80;;;;;;;;;;4999027;28;20101;-83
2021/08/27 04:19:55;;;;;;;6.65;4.13;;;;;;;;;;4998987;28;20046;-82
2021/08/27 04:22:23;;;;;;;6.93;4.38;;;;;;;;;;5000274;28;20133;-78
2021/08/27 04:24:50;;;;;;;6.53;4.10;;;;;;;;;;5002351;28;20133;-82
2021/08/27 04:27:17;;;;;;;6.40;3.97;;;;;;;;;;5000249;28;20082;-83
2021/08/27 04:29:44;;;;;;;6.53;3.88;;;;;;;;;;5001227;28;20126;-83
2021/08/27 04:32:12;;;;;;;5.75;3.25;;;;;;;;;;4999211;28;20081;-81
2021/08/27 04:34:39;;;;;;;6.50;3.28;;;;;;;;;;4998478;28;20097;-81
2021/08/27 04:37:06;;;;;;;4.88;3.00;;;;;;;;;;4998133;28;20484;-81
2021/08/27 04:39:34;;;;;;;5.35;3.00;;;;;;;;;;4998616;28;20081;-83
2021/08/27 04:42:02;;;;;;;4.55;3.10;;;;;;;;;;4998435;28;20520;-83
2021/08/27 04:44:28;;;;;;;5.63;3.47;;;;;;;;;;5000185;28;20052;-82
2021/08/27 04:46:55;;;;;;;7.05;3.38;;;;;;;;;;4999854;28;20100;-79
2021/08/27 04:49:22;;;;;;;5.22;2.90;;;;;;;;;;5000141;28;20070;-82
2021/08/27 04:51:49;;;;;;;5.13;2.97;;;;;;;;;;4999413;28;20082;-83
2021/08/27 04:54:16;;;;;;;5.07;3.05;;;;;;;;;;4999700;28;20077;-81
2021/08/27 04:56:44;;;;;;;3.78;2.45;;;;;;;;;;5007522;28;20034;-79
2021/08/27 04:59:11;;;;;;;4.90;2.65;;;;;;;;;;5006784;28;20489;-83
2021/08/27 05:01:37;;;;;;;4.50;2.90;;;;;;;;;;5002709;28;20125;-83
2021/08/27 05:04:04;;;;;;;5.70;2.70;;;;;;;;;;5001829;28;20101;-83
2021/08/27 05:06:31;;;;;;;5.25;3.35;;;;;;;;;;5002182;28;20055;-83
2021/08/27 05:08:58;;;;;;;6.28;3.65;;;;;;;;;;5004052;28;20043;-84
2021/08/27 05:11:24;;;;;;;5.28;3.22;;;;;;;;;;5002682;28;20070;-83
2021/08/27 05:13:52;;;;;;;4.93;3.13;;;;;;;;;;5001984;28;20047;-84
2021/08/27 05:16:19;;;;;;;5.32;3.30;;;;;;;;;;5001489;28;20050;-83
2021/08/27 05:18:46;;;;;;;5.75;3.67;;;;;;;;;;5001212;28;20516;-84
2021/08/27 05:21:15;;;;;;;5.40;3.10;;;;;;;;;;5001223;28;20081;-83
2021/08/27 05:23:41;;;;;;;5.63;2.85;;;;;;;;;;5001409;28;20046;-84
2021/08/27 05:26:08;;;;;;;5.15;2.60;;;;;;;;;;5000532;28;20077;-83
2021/08/27 05:28:35;;;;;;;5.28;2.72;;;;;;;;;;5000630;28;20046;-82
2021/08/27 05:31:03;;;;;;;5.55;2.75;;;;;;;;;;5005550;28;20070;-84
2021/08/27 05:33:30;;;;;;;6.38;3.28;;;;;;;;;;4999576;28;20101;-84
2021/08/27 05:35:56;;;;;;;5.20;3.28;;;;;;;;;;4999122;28;20487;-82
2021/08/27 05:38:23;;;;;;;5.05;3.20;;;;;;;;;;4998623;28;20088;-81
2021/08/27 05:40:50;;;;;;;5.88;3.63;;;;;;;;;;4998858;28;20114;-82
2021/08/27 05:43:16;;;;;;;6.97;4.03;;;;;;;;;;4998845;28;20084;-83
2021/08/27 05:45:43;;;;;;;6.95;3.80;;;;;;;;;;5004178;28;20077;-81
2021/08/27 05:48:11;;;;;;;6.65;4.13;;;;;;;;;;5004330;28;20082;-82
2021/08/27 05:50:38;;;;;;;8.00;4.65;;;;;;;;;;5001918;28;20078;-82
2021/08/27 05:53:04;;;;;;;7.65;4.80;;;;;;;;;;5003097;28;20085;-82
2021/08/27 05:55:31;;;;;;;9.00;5.13;;;;;;;;;;5005483;28;20500;-82
2021/08/27 05:57:58;;;;;;;8.43;5.30;;;;;;;;;;5004881;28;20082;-81
2021/08/27 06:00:24;;;;;;;8.23;5.20;;;;;;;;;;5005137;28;20046;-81
2021/08/27 06:02:51;;;;;;;8.43;4.55;;;;;;;;;;5006393;28;20042;-82
2021/08/27 06:05:20;;;;;;;8.05;4.97;;;;;;;;;;5006626;28;20046;-81
2021/08/27 06:07:47;;;;;;;8.38;4.95;;;;;;;;;;5007101;28;20057;-82
2021/08/27 06:10:14;;;;;;;8.30;5.10;;;;;;;;;;5004359;28;20489;-82
2021/08/27 06:12:41;;;;;;;7.53;4.72;;;;;;;;;;5006230;28;20074;-82
2021/08/27 06:15:10;;;;;;;7.45;4.75;;;;;;;;;;5008956;28;20047;-81
2021/08/27 06:17:36;;;;;;;8.73;4.75;;;;;;;;;;5009880;28;20061;-82
2021/08/27 06:20:03;;;;;;;8.00;5.00;;;;;;;;;;5009477;28;20054;-82
2021/08/27 06:22:31;;;;;;;9.00;5.07;;;;;;;;;;5009465;28;20050;-82
2021/08/27 06:24:58;;;;;;;8.55;5.35;;;;;;;;;;5009283;28;20096;-82
2021/08/27 06:27:25;;;;;;;8.20;4.65;;;;;;;;;;5009756;28;20412;-82
2021/08/27 06:29:52;;;;;;;7.88;4.72;;;;;;;;;;5009026;28;20054;-82
2021/08/27 06:32:19;;;;;;;8.30;4.78;;;;;;;;;;5008021;28;20066;-81
2021/08/27 06:34:46;;;;;;;7.18;4.97;;;;;;;;;;5008177;28;20051;-82
2021/08/27 06:37:12;;;;;;;8.68;4.80;;;;;;;;;;5008331;28;20140;-82
2021/08/27 06:39:40;;;;;;;7.57;4.80;;;;;;;;;;5008060;28;20519;-81
2021/08/27 06:42:07;;;;;;;8.23;4.75;;;;;;;;;;5007692;28;20081;-82
2021/08/27 06:44:34;;;;;;;8.48;4.40;;;;;;;;;;5009182;28;20042;-80
2021/08/27 06:47:00;;;;;;;8.88;5.18;;;;;;;;;;5007348;28;20454;-82
2021/08/27 06:49:27;;;;;;;7.50;4.43;;;;;;;;;;5007291;28;20516;-81
2021/08/27 06:51:54;;;;;;;7.45;4.40;;;;;;;;;;5007302;28;20085;-82
2021/08/27 06:54:20;;;;;;;9.00;5.07;;;;;;;;;;5004599;28;20089;-81
2021/08/27 06:56:48;;;;;;;6.80;4.55;;;;;;;;;;5001045;28;20553;-82
2021/08/27 06:59:15;;;;;;;7.65;4.25;;;;;;;;;;5001259;28;20114;-81
2021/08/27 07:01:42;;;;;;;7.65;4.20;;;;;;;;;;5001017;28;20082;-81
2021/08/27 07:04:08;;;;;;;6.72;4.60;;;;;;;;;;5001462;28;20085;-82
2021/08/27 07:06:35;;;;;;;7.97;4.85;;;;;;;;;;5001717;28;20081;-83
2021/08/27 07:09:01;;;;;;;6.60;3.90;;;;;;;;;;4999426;28;20082;-83
2021/08/27 07:11:28;;;;;;;6.93;4.05;;;;;;;;;;5001082;28;20070;-81
2021/08/27 07:13:56;;;;;;;7.80;4.22;;;;;;;;;;5003083;28;20081;-81
2021/08/27 07:16:23;;;;;;;9.15;4.70;;;;;;;;;;5002628;28;20122;-81
2021/08/27 07:18:49;;;;;;;7.03;4.43;;;;;;;;;;5002704;28;20081;-81
2021/08/27 07:21:16;;;;;;;6.38;4.10;;;;;;;;;;5002629;28;20082;-81
2021/08/27 07:23:43;;;;;;;5.85;3.38;;;;;;;;;;5001808;28;20081;-82
2021/08/27 07:26:09;;;;;;;6.10;3.38;;;;;;;;;;5001779;28;20070;-82
2021/08/27 07:28:37;;;;;;;6.45;3.63;;;;;;;;;;5001302;28;20081;-82
2021/08/27 07:31:10;;;;;;;6.72;3.85;;;;;;;;;;5001978;28;20077;-81
2021/08/27 07:33:37;;;;;;;7.20;4.95;;;;;;;;;;5001918;28;20133;-82
2021/08/27 07:36:04;;;;;;;5.30;3.42;;;;;;;;;;5002146;28;20507;-81
2021/08/27 07:38:31;;;;;;;6.10;3.80;;;;;;;;;;5001631;28;20054;-81
2021/08/27 07:40:58;;;;;;;7.47;4.50;;;;;;;;;;5006394;28;20157;-81
2021/08/27 07:43:25;;;;;;;6.50;4.43;;;;;;;;;;5002114;28;20073;-81
2021/08/27 07:45:57;;;;;;;5.43;3.85;;;;;;;;;;4999836;28;20050;-81
2021/08/27 07:48:25;;;;;;;6.25;3.05;;;;;;;;;;4999812;28;20081;-81
2021/08/27 07:50:52;;;;;;;5.50;3.30;;;;;;;;;;4997332;28;20069;-80
2021/08/27 07:53:19;;;;;;;9.07;4.25;;;;;;;;;;4998994;28;20047;-82
2021/08/27 07:55:45;;;;;;;5.38;3.10;;;;;;;;;;4999148;28;20097;-83
2021/08/27 07:58:12;;;;;;;3.95;2.30;;;;;;;;;;4998868;28;20050;-83
2021/08/27 08:00:41;;;;;;;4.07;2.03;;;;;;;;;;5001505;28;20133;-83
2021/08/27 08:03:11;;;;;;;4.53;2.50;;;;;;;;;;5007951;28;20077;-84
2021/08/27 08:05:39;;;;;;;5.15;3.05;;;;;;;;;;5006428;28;20042;-84
2021/08/27 08:08:08;;;;;;;4.70;2.80;;;;;;;;;;5007804;28;20047;-81
2021/08/27 08:10:35;;;;;;;4.70;2.73;;;;;;;;;;5006862;28;20061;-84
2021/08/27 08:13:02;;;;;;;3.63;1.55;;;;;;;;;;5007991;28;20057;-83
2021/08/27 08:15:29;;;;;;;3.97;2.00;;;;;;;;;;5008250;28;20207;-84
2021/08/27 08:17:58;;;;;;;5.97;3.15;;;;;;;;;;5008233;28;20046;-84
2021/08/27 08:20:27;;;;;;;4.00;2.53;;;;;;;;;;5007383;28;20129;-82
2021/08/27 08:22:57;;;;;;;3.92;2.10;;;;;;;;;;5008063;28;20081;-83
2021/08/27 08:25:23;;;;;;;4.28;2.50;;;;;;;;;;5007957;28;20062;-84
2021/08/27 08:27:53;;;;;;;4.32;2.20;;;;;;;;;;5007151;28;20407;-83
2021/08/27 08:30:19;;;;;;;4.63;2.50;;;;;;;;;;5006753;28;20089;-84
2021/08/27 08:32:46;;;;;;;5.65;2.22;;;;;;;;;;5006324;28;20081;-83
2021/08/27 08:35:13;;;;;;;4.35;2.60;;;;;;;;;;5005797;28;20562;-83
2021/08/27 08:37:41;;;;;;;4.25;2.35;;;;;;;;;;5005984;28;20074;-83
2021/08/27 08:40:14;;;;;;;4.97;2.97;;;;;;;;;;5006291;28;20049;-83
2021/08/27 08:42:42;;;;;;;6.60;2.95;;;;;;;;;;5006752;28;20073;-84
2021/08/27 08:45:09;;;;;;;4.75;2.88;;;;;;;;;;5006944;28;20247;-83
2021/08/27 08:47:42;;;;;;;7.72;3.20;;;;;;;;;;5012929;28;20058;-83
2021/08/27 08:50:10;;;;;;;5.65;2.90;;;;;;;;;;5016142;28;20077;-83
2021/08/27 08:52:38;;;;;;;4.03;2.65;;;;;;;;;;5007455;28;20065;-84
2021/08/27 08:55:05;;;;;;;5.55;3.17;;;;;;;;;;5007249;28;20050;-82
2021/08/27 08:57:35;;;;;;;6.72;3.10;;;;;;;;;;5005905;28;20085;-83
2021/08/27 09:00:04;;;;;;;4.03;2.50;;;;;;;;;;5006607;28;20112;-83
2021/08/27 09:02:30;;;;;;;5.43;3.15;;;;;;;;;;5006412;28;20061;-83
2021/08/27 09:04:57;;;;;;;5.32;3.10;;;;;;;;;;5008736;28;20050;-83
2021/08/27 09:07:25;;;;;;;5.82;2.70;;;;;;;;;;5006995;28;20530;-84
2021/08/27 09:09:51;;;;;;;5.18;3.05;;;;;;;;;;5006620;28;20051;-82
2021/08/27 09:12:24;;;;;;;9.18;6.82;;;;;;;;;;5005225;28;20077;-84
2021/08/27 09:15:01;;;;;;;5.65;3.33;;;;;;;;;;5003559;28;20070;-83
2021/08/27 09:17:30;;;;;;;5.68;3.03;;;;;;;;;;5005638;28;20047;-82
2021/08/27 09:19:57;;;;;;;4.57;2.17;;;;;;;;;;5004588;28;20082;-83
2021/08/27 09:22:24;;;;;;;4.90;2.30;;;;;;;;;;5003334;28;20043;-83
2021/08/27 09:25:15;;;;;;;5.15;2.28;;;;;;;;;;5003651;28;20085;-82
2021/08/27 09:28:04;;;;;;;;;;;;;;;;;;4987472;28;20082;-82
2021/08/27 09:30:34;;;;;;;3.88;2.20;;;;;;;;;;5000673;28;19921;-83
2021/08/27 09:33:14;;;;;;;5.30;2.97;;;;;;;;;;5004684;28;20116;-82
2021/08/27 09:35:56;;;;;;;3.28;1.88;;;;;;;;;;5002941;28;20050;-84
2021/08/27 09:38:29;;;;;;;8.20;6.15;;;;;;;;;;5002838;28;20058;-85
2021/08/27 09:41:04;;;;;;;5.28;3.10;;;;;;;;;;5003846;28;20060;-84
2021/08/27 09:43:30;;;;;;;3.80;2.40;;;;;;;;;;5001776;28;20111;-84
2021/08/27 09:45:59;;;;;;;4.28;1.83;;;;;;;;;;5001905;28;20205;-84
2021/08/27 09:48:29;;;;;;;3.50;1.67;;;;;;;;;;5002371;28;20504;-85
2021/08/27 09:51:14;;;;;;;2.97;1.52;;;;;;;;;;5001754;28;20061;-85
2021/08/27 09:53:43;;;;;;;7.97;2.38;;;;;;;;;;5002236;28;20055;-81
2021/08/27 09:56:10;;;;;;;4.82;2.05;;;;;;;;;;5001860;28;20054;-86
2021/08/27 09:58:51;;;;;;;3.83;1.48;;;;;;;;;;5001372;28;20050;-83
2021/08/27 10:01:22;;;;;;;5.70;2.30;;;;;;;;;;5000453;28;20465;-83
2021/08/27 10:04:05;;;;;;;4.40;1.67;;;;;;;;;;5000898;28;20061;-85
2021/08/27 10:06:32;;;;;;;4.85;2.30;;;;;;;;;;4998690;28;20058;-84
2021/08/27 10:09:01;;;;;;;4.28;1.60;;;;;;;;;;4999487;28;20050;-85
2021/08/27 10:11:33;;;;;;;3.80;1.75;;;;;;;;;;4999494;28;20080;-84
2021/08/27 10:14:00;;;;;;;4.65;1.92;;;;;;;;;;5000608;28;20125;-85
2021/08/27 10:16:31;;;;;;;5.20;2.15;;;;;;;;;;4998146;28;20125;-84
2021/08/27 10:18:58;;;;;;;4.18;2.20;;;;;;;;;;4998985;28;20065;-85
2021/08/27 10:21:25;;;;;;;4.20;1.92;;;;;;;;;;4999509;28;20492;-84
2021/08/27 10:23:52;;;;;;;4.35;2.33;;;;;;;;;;5001284;28;20042;-85
2021/08/27 10:26:21;;;;;;;4.40;2.00;;;;;;;;;;5001340;28;20077;-85
2021/08/27 10:28:51;;;;;;;5.03;2.20;;;;;;;;;;5009045;28;20085;-85
2021/08/27 10:31:18;;;;;;;;;;;;;;;;;;5005260;28;20628;-85
2021/08/27 10:34:05;;;;;;;4.78;2.35;;;;;;;;;;4999394;28;19921;-84
2021/08/27 10:36:50;;;;;;;4.65;1.95;;;;;;;;;;4999517;28;20564;-85
2021/08/27 10:39:45;;;;;;;4.32;2.05;;;;;;;;;;4999002;28;20073;-84
2021/08/27 10:42:48;;;;;;;3.97;2.30;;;;;;;;;;5010464;28;20062;-85
2021/08/27 10:45:53;;;;;;;4.80;2.88;;;;;;;;;;5009855;28;20050;-83
2021/08/27 10:48:25;;;;;;;5.55;2.58;;;;;;;;;;5002069;28;20431;-81
2021/08/27 10:50:54;;;;;;;4.88;2.70;;;;;;;;;;5002206;28;20150;-82
2021/08/27 10:53:30;;;;;;;5.40;2.40;;;;;;;;;;5001094;28;20077;-82
2021/08/27 10:55:58;;;;;;;4.15;2.38;;;;;;;;;;5001318;28;20057;-82
2021/08/27 10:58:43;;;;;;;4.20;2.20;;;;;;;;;;5011349;28;20065;-81
2021/08/27 11:01:28;;;;;;;4.22;1.80;;;;;;;;;;5012004;28;20077;-81
2021/08/27 11:04:13;;;;;;;3.58;1.75;;;;;;;;;;4992875;28;20065;-85
2021/08/27 11:07:40;;;;;;;3.28;1.80;;;;;;;;;;4985610;28;20420;-85
2021/08/27 11:10:13;;;;;;;4.20;2.13;;;;;;;;;;4981978;28;20074;-86
2021/08/27 11:12:40;;;;;;;4.10;2.40;;;;;;;;;;4984300;28;20570;-86
2021/08/27 11:15:26;;;;;;;3.53;1.90;;;;;;;;;;4999014;28;20050;-85
2021/08/27 11:18:24;;;;;;;3.35;2.10;;;;;;;;;;4999565;28;20125;-86
2021/08/27 11:20:57;;;;;;;4.88;2.00;;;;;;;;;;4999176;28;20054;-89
2021/08/27 11:23:55;;;;;;;3.53;1.92;;;;;;;;;;4997700;28;20056;-87
2021/08/27 11:26:41;;;;;;;4.22;2.35;;;;;;;;;;4997261;28;20502;-87
2021/08/27 11:29:41;;;;;;;4.55;2.53;;;;;;;;;;4999750;28;20061;-86
2021/08/27 11:32:34;;;;;;;4.65;2.35;;;;;;;;;;4998413;28;20054;-84
2021/08/27 11:35:07;;;;;;;4.80;1.92;;;;;;;;;;4997996;28;20054;-85
2021/08/27 11:37:52;;;;;;;5.07;2.58;;;;;;;;;;5000136;28;20046;-85
2021/08/27 11:40:21;;;;;;;7.05;4.18;;;;;;;;;;4999277;28;20535;-85
2021/08/27 11:42:55;;;;;;;3.85;2.35;;;;;;;;;;5002105;28;20054;-84
2021/08/27 11:45:33;;;;;;;3.42;2.20;;;;;;;;;;5003467;28;20407;-85
2021/08/27 11:48:07;;;;;;;4.03;2.40;;;;;;;;;;5008554;28;20516;-84
2021/08/27 11:50:39;;;;;;;5.72;2.20;;;;;;;;;;5006687;28;20496;-84
2021/08/27 11:53:10;;;;;;;4.13;1.90;;;;;;;;;;5000629;28;20046;-84
2021/08/27 11:55:42;;;;;;;4.30;2.35;;;;;;;;;;4998739;28;20066;-85
2021/08/27 11:58:20;;;;;;;4.57;2.25;;;;;;;;;;4998451;28;20055;-84
2021/08/27 12:00:48;;;;;;;4.90;2.28;;;;;;;;;;4999347;28;20492;-83
2021/08/27 12:03:34;;;;;;;4.43;2.63;;;;;;;;;;5000175;28;20133;-85
2021/08/27 12:06:21;;;;;;;5.18;2.67;;;;;;;;;;5000178;28;20508;-84
2021/08/27 12:08:57;;;;;;;4.18;2.35;;;;;;;;;;4999521;28;20481;-85
2021/08/27 12:11:47;;;;;;;3.35;2.10;;;;;;;;;;5000420;28;20051;-84
2021/08/27 12:14:14;;;;;;;16.30;4.65;;;;;;;;;;5000252;28;20046;-84
2021/08/27 12:16:58;;;;;;;3.50;2.13;;;;;;;;;;5000472;28;20058;-85
2021/08/27 12:19:28;;;;;;;3.38;2.10;;;;;;;;;;5002397;28;20056;-84
2021/08/27 12:22:01;;;;;;;3.40;2.30;;;;;;;;;;5005376;28;20053;-84
2021/08/27 12:24:47;;;;;;;4.25;2.22;;;;;;;;;;5004481;28;20046;-87
2021/08/27 12:30:32;;;;;;;4.10;2.28;;;;;;;;;;5003637;28;20077;-85
2021/08/27 12:33:00;;;;;;;4.82;2.17;;;;;;;;;;5007204;28;20050;-85
2021/08/27 12:35:35;;;;;;;4.93;2.35;;;;;;;;;;5007144;28;20512;-83
2021/08/27 12:38:11;;;;;;;4.10;2.35;;;;;;;;;;5002119;28;20101;-85
2021/08/27 12:40:37;;;;;;;3.92;2.20;;;;;;;;;;5001725;28;20053;-84
2021/08/27 12:43:10;;;;;;;4.28;2.80;;;;;;;;;;5003948;28;20046;-83
2021/08/27 12:45:44;;;;;;;4.68;2.08;;;;;;;;;;5025038;23;20047;-80
2021/08/27 12:48:12;;;;;;;5.82;3.65;;;;;;;;;;5009303;28;20054;-82
2021/08/27 12:50:53;;;;;;;4.90;2.30;;;;;;;;;;5010602;28;20046;-79
2021/08/27 12:53:29;;;;;;;5.03;1.77;;;;;;;;;;5013837;28;20065;-80
2021/08/27 12:56:12;;;;;;;5.45;2.00;;;;;;;;;;4997567;28;20050;-81
2021/08/27 12:58:42;;;;;;;3.80;1.75;;;;;;;;;;4995129;28;20055;-81
2021/08/27 13:01:16;;;;;;;3.30;1.70;;;;;;;;;;4995354;28;20043;-84
2021/08/27 13:03:45;;;;;;;2.50;1.48;;;;;;;;;;4993387;28;20117;-82
2021/08/27 13:06:32;;;;;;;4.85;1.55;;;;;;;;;;4990326;28;20047;-83
2021/08/27 13:09:06;;;;;;;3.10;1.95;;;;;;;;;;4988964;28;20057;-83
2021/08/27 13:11:47;;;;;;;2.80;1.50;;;;;;;;;;4985631;28;20054;-82
2021/08/27 13:14:25;;;;;;;3.90;1.70;;;;;;;;;;4984010;28;20050;-83
2021/08/27 13:16:57;;;;;;;2.63;1.20;;;;;;;;;;4989555;28;20070;-82
2021/08/27 13:19:25;;;;;;;2.88;1.27;;;;;;;;;;5000160;28;20035;-81
2021/08/27 13:21:52;;;;;;;3.75;1.30;;;;;;;;;;4998937;28;20074;-83
2021/08/27 13:24:19;;;;;;;3.60;1.30;;;;;;;;;;4990363;28;20047;-81
2021/08/27 13:26:54;;;;;;;3.38;1.10;;;;;;;;;;4990080;28;20051;-82
2021/08/27 13:29:22;;;;;;;3.45;1.88;;;;;;;;;;4988461;28;20053;-82
2021/08/27 13:31:49;;;;;;;3.17;1.90;;;;;;;;;;4987733;28;20102;-82
2021/08/27 13:34:16;;;;;;;3.08;1.42;;;;;;;;;;4988282;28;20050;-81
2021/08/27 13:36:43;;;;;;;2.13;1.00;;;;;;;;;;4982902;28;20047;-83
2021/08/27 13:39:12;;;;;;;3.47;1.58;;;;;;;;;;4982074;28;20460;-82
2021/08/27 13:41:40;;;;;;;4.13;1.60;;;;;;;;;;4982399;28;20050;-83
2021/08/27 13:44:07;;;;;;;2.72;1.30;;;;;;;;;;4995381;28;20055;-82
2021/08/27 13:46:44;;;;;;;2.67;1.20;;;;;;;;;;4995728;28;20416;-82
2021/08/27 13:49:11;;;;;;;2.78;1.35;;;;;;;;;;4995865;28;20062;-82
2021/08/27 13:51:39;;;;;;;2.38;1.25;;;;;;;;;;4993341;28;20047;-82
2021/08/27 13:54:05;;;;;;;2.80;1.20;;;;;;;;;;4985685;28;20105;-82
2021/08/27 13:56:32;;;;;;;3.10;1.60;;;;;;;;;;4983758;28;20054;-82
2021/08/27 13:59:01;;;;;;;3.50;1.10;;;;;;;;;;4979947;28;20142;-82
2021/08/27 14:01:29;;;;;;;3.13;1.30;;;;;;;;;;4979282;28;20055;-82
2021/08/27 14:03:57;;;;;;;2.78;1.23;;;;;;;;;;4979531;28;20105;-83
2021/08/27 14:06:24;;;;;;;1.70;1.08;;;;;;;;;;4978343;28;20118;-82
2021/08/27 14:08:51;;;;;;;2.75;1.20;;;;;;;;;;4978888;28;20066;-83
2021/08/27 14:11:18;;;;;;;2.47;1.15;;;;;;;;;;4986768;28;20047;-82
2021/08/27 14:13:45;;;;;;;2.22;1.30;;;;;;;;;;4993320;28;20061;-82
2021/08/27 14:16:12;;;;;;;3.20;1.15;;;;;;;;;;4983098;28;20058;-83
2021/08/27 14:18:38;;;;;;;2.20;1.10;;;;;;;;;;4979990;28;20074;-83
2021/08/27 14:21:06;;;;;;;4.65;2.85;;;;;;;;;;4979423;28;20109;-83
2021/08/27 14:23:34;;;;;;;3.33;2.03;;;;;;;;;;4979069;28;20046;-83
2021/08/27 14:26:01;;;;;;;2.88;1.85;;;;;;;;;;4976295;28;20053;-83
2021/08/27 14:28:27;;;;;;;2.70;1.35;;;;;;;;;;4977007;28;20047;-83
2021/08/27 14:30:54;;;;;;;2.20;1.20;;;;;;;;;;4977102;28;20089;-83
2021/08/27 14:33:25;;;;;;;3.08;1.98;;;;;;;;;;4976546;28;20101;-83
2021/08/27 14:35:52;;;;;;;3.83;2.20;;;;;;;;;;4975522;28;20057;-83
2021/08/27 14:38:20;;;;;;;2.63;1.27;;;;;;;;;;4976303;28;20134;-83
2021/08/27 14:40:47;;;;;;;2.17;1.15;;;;;;;;;;4977237;28;20138;-83
2021/08/27 14:43:13;;;;;;;1.80;1.10;;;;;;;;;;4978009;28;20391;-83
2021/08/27 14:45:40;;;;;;;3.30;1.20;;;;;;;;;;4975893;28;20047;-83
2021/08/27 14:48:07;;;;;;;3.70;1.30;;;;;;;;;;4976463;28;20071;-83
2021/08/27 14:50:33;;;;;;;3.30;1.13;;;;;;;;;;4976603;28;20055;-83
2021/08/27 14:53:00;;;;;;;2.10;1.10;;;;;;;;;;4977459;28;20518;-83
2021/08/27 14:55:29;;;;;;;1.35;0.80;;;;;;;;;;4975692;28;20067;-83
2021/08/27 14:57:55;;;;;;;3.33;1.20;;;;;;;;;;4975685;28;20050;-83
2021/08/27 15:00:22;;;;;;;2.30;1.02;;;;;;;;;;4976196;28;20150;-83
2021/08/27 15:02:49;;;;;;;1.80;0.95;;;;;;;;;;4977376;28;20535;-83
2021/08/27 15:05:15;;;;;;;2.38;1.17;;;;;;;;;;4978472;28;20047;-84